Time;durP1;ratioP1;P1;durP2;ratioP2;P2;SDS_P1;SDS_P2;PMS_P1;PMS_P2;Temp;Humidity;BMP_temperature;BMP_pressure;BME280_temperature;BME280_humidity;BME280_pressure;Samples;Min_cycle;Max_cycle;Signal;HPM_P1;HPM_P2
2022/03/13 00:00:41;;;;;;;0.47;0.47;;;5.70;99.90;;;;;;5041344;28;20197;-85
2022/03/13 00:03:12;;;;;;;0.40;0.40;;;5.70;99.90;;;;;;5007213;28;20207;-85
2022/03/13 00:05:41;;;;;;;0.53;0.53;;;5.60;99.90;;;;;;5023232;28;20270;-85
2022/03/13 00:08:18;;;;;;;3.07;0.53;;;5.60;99.90;;;;;;5022290;28;20213;-85
2022/03/13 00:10:50;;;;;;;3.47;0.93;;;5.60;99.90;;;;;;5025634;28;20203;-85
2022/03/13 00:13:16;;;;;;;0.83;0.60;;;5.70;99.90;;;;;;5022480;28;20213;-85
2022/03/13 00:15:42;;;;;;;0.50;0.50;;;5.80;99.90;;;;;;5022949;28;20194;-85
2022/03/13 00:18:11;;;;;;;0.87;0.57;;;5.80;99.90;;;;;;5022689;28;20187;-85
2022/03/13 00:20:38;;;;;;;1.73;1.63;;;5.90;99.90;;;;;;5023154;28;20693;-85
2022/03/13 00:23:05;;;;;;;1.20;1.20;;;5.90;99.90;;;;;;5022244;28;20213;-85
2022/03/13 00:25:30;;;;;;;0.43;0.43;;;6.00;99.90;;;;;;5025048;28;20250;-85
2022/03/13 00:27:57;;;;;;;0.63;0.63;;;6.00;99.90;;;;;;5025249;28;20765;-85
2022/03/13 00:30:23;;;;;;;1.83;0.87;;;6.00;99.90;;;;;;5024445;28;21156;-85
2022/03/13 00:32:49;;;;;;;0.27;0.27;;;5.90;99.90;;;;;;5026494;28;20656;-85
2022/03/13 00:35:15;;;;;;;0.40;0.40;;;5.90;99.90;;;;;;5021156;28;20228;-85
2022/03/13 00:37:41;;;;;;;0.90;0.90;;;5.90;99.90;;;;;;5021744;28;20278;-85
2022/03/13 00:40:07;;;;;;;0.63;0.63;;;5.90;99.90;;;;;;5021772;28;20558;-85
2022/03/13 00:42:32;;;;;;;0.30;0.30;;;6.00;99.90;;;;;;5021086;28;20293;-85
2022/03/13 00:44:58;;;;;;;1.57;0.53;;;6.00;99.90;;;;;;5023662;28;20324;-85
2022/03/13 00:47:24;;;;;;;0.63;0.63;;;6.10;99.90;;;;;;5025320;28;20200;-85
2022/03/13 00:49:50;;;;;;;0.40;0.40;;;6.10;99.90;;;;;;5024003;28;20194;-85
2022/03/13 00:52:17;;;;;;;0.73;0.73;;;6.20;99.90;;;;;;5023256;28;20408;-85
2022/03/13 00:54:42;;;;;;;0.83;0.43;;;6.20;99.90;;;;;;5022946;28;20184;-84
2022/03/13 00:57:08;;;;;;;0.50;0.50;;;6.20;99.90;;;;;;5025158;28;20199;-85
2022/03/13 00:59:34;;;;;;;0.40;0.40;;;6.30;99.90;;;;;;5022164;28;20581;-84
2022/03/13 01:02:00;;;;;;;0.60;0.50;;;6.20;99.90;;;;;;5018437;28;20224;-84
2022/03/13 01:04:26;;;;;;;3.10;0.33;;;6.20;99.90;;;;;;5022762;28;20214;-85
2022/03/13 01:06:51;;;;;;;0.30;0.30;;;6.30;99.90;;;;;;5020494;28;20224;-85
2022/03/13 01:09:17;;;;;;;1.30;1.30;;;6.30;99.90;;;;;;5023894;28;20709;-85
2022/03/13 01:11:43;;;;;;;1.10;0.77;;;6.30;99.90;;;;;;5021253;28;20198;-85
2022/03/13 01:14:09;;;;;;;0.20;0.20;;;6.30;99.90;;;;;;5021306;28;20182;-85
2022/03/13 01:16:37;;;;;;;0.37;0.37;;;6.30;99.90;;;;;;5023354;28;20183;-84
2022/03/13 01:19:03;;;;;;;2.63;1.20;;;6.20;99.90;;;;;;5023651;28;20193;-85
2022/03/13 01:21:31;;;;;;;1.40;1.30;;;6.20;99.90;;;;;;5021803;28;20214;-85
2022/03/13 01:24:00;;;;;;;0.37;0.37;;;6.20;99.90;;;;;;5020231;28;20810;-85
2022/03/13 01:26:25;;;;;;;0.30;0.30;;;6.20;99.90;;;;;;5022605;28;20190;-85
2022/03/13 01:28:56;;;;;;;1.07;1.00;;;6.20;99.90;;;;;;5022213;28;20236;-85
2022/03/13 01:31:26;;;;;;;0.80;0.63;;;6.20;99.90;;;;;;5023582;28;20261;-84
2022/03/13 01:33:53;;;;;;;0.67;0.60;;;6.20;99.90;;;;;;5022409;28;20253;-84
2022/03/13 01:36:19;;;;;;;1.80;0.50;;;6.10;99.90;;;;;;5019934;28;20189;-85
2022/03/13 01:38:44;;;;;;;0.73;0.57;;;6.10;99.90;;;;;;5017353;28;20195;-84
2022/03/13 01:41:10;;;;;;;0.33;0.33;;;6.20;99.90;;;;;;5020786;28;20285;-85
2022/03/13 01:43:36;;;;;;;2.63;0.30;;;6.20;99.90;;;;;;5019091;28;20186;-85
2022/03/13 01:46:04;;;;;;;0.30;0.30;;;6.10;99.90;;;;;;5021797;28;20201;-85
2022/03/13 01:48:38;;;;;;;0.40;0.40;;;6.10;99.90;;;;;;5023823;28;20219;-85
2022/03/13 01:51:05;;;;;;;0.40;0.40;;;6.10;99.90;;;;;;5020744;28;20238;-85
2022/03/13 01:53:32;;;;;;;0.67;0.67;;;6.10;99.90;;;;;;5017918;28;20197;-85
2022/03/13 01:55:58;;;;;;;3.17;1.23;;;6.10;99.90;;;;;;5022101;28;20194;-85
2022/03/13 01:58:25;;;;;;;0.77;0.50;;;6.00;99.90;;;;;;5022477;28;20204;-85
2022/03/13 02:00:50;;;;;;;0.77;0.77;;;6.00;99.90;;;;;;5019986;28;20286;-85
2022/03/13 02:03:16;;;;;;;0.53;0.43;;;6.10;99.90;;;;;;5020583;28;20194;-85
2022/03/13 02:05:43;;;;;;;0.20;0.20;;;6.00;99.90;;;;;;5021568;28;20262;-84
2022/03/13 02:08:22;;;;;;;0.83;0.60;;;5.90;99.90;;;;;;5023834;28;20290;-85
2022/03/13 02:10:49;;;;;;;0.70;0.70;;;6.00;99.90;;;;;;5021940;28;20200;-85
2022/03/13 02:13:17;;;;;;;0.43;0.37;;;6.00;99.90;;;;;;5018351;28;20192;-85
2022/03/13 02:15:44;;;;;;;1.00;1.00;;;6.00;99.90;;;;;;5021387;28;20188;-85
2022/03/13 02:18:10;;;;;;;1.80;0.83;;;6.00;99.90;;;;;;5023443;28;20210;-85
2022/03/13 02:20:41;;;;;;;0.70;0.70;;;6.10;99.90;;;;;;5017102;28;20580;-85
2022/03/13 02:23:21;;;;;;;2.37;1.07;;;6.10;99.90;;;;;;5019286;28;20187;-85
2022/03/13 02:25:56;;;;;;;0.37;0.37;;;5.90;99.90;;;;;;5020170;28;20245;-85
2022/03/13 02:28:25;;;;;;;0.73;0.73;;;5.90;99.90;;;;;;5021190;28;20209;-85
2022/03/13 02:30:51;;;;;;;3.40;0.77;;;5.90;99.90;;;;;;5023394;28;20708;-85
2022/03/13 02:33:19;;;;;;;0.90;0.90;;;5.80;99.90;;;;;;5025227;28;20188;-85
2022/03/13 02:35:52;;;;;;;0.77;0.77;;;5.80;99.90;;;;;;5027199;28;20184;-85
2022/03/13 02:38:18;;;;;;;0.77;0.50;;;5.80;99.90;;;;;;5025379;28;20247;-85
2022/03/13 02:40:44;;;;;;;0.40;0.40;;;5.80;99.90;;;;;;5025723;28;20207;-85
2022/03/13 02:43:09;;;;;;;0.53;0.53;;;5.80;99.90;;;;;;5023471;28;20618;-85
2022/03/13 02:45:37;;;;;;;4.40;1.27;;;5.80;99.90;;;;;;5026051;28;20192;-85
2022/03/13 02:48:06;;;;;;;0.37;0.30;;;5.80;99.90;;;;;;5025409;28;20272;-85
2022/03/13 02:50:33;;;;;;;0.60;0.60;;;5.70;99.90;;;;;;5025161;28;20180;-85
2022/03/13 02:52:59;;;;;;;0.33;0.33;;;5.70;99.90;;;;;;5025791;28;20285;-85
2022/03/13 02:55:24;;;;;;;0.87;0.87;;;5.70;99.90;;;;;;5026625;28;20592;-85
2022/03/13 02:57:50;;;;;;;0.47;0.40;;;5.60;99.90;;;;;;5024005;28;20247;-85
2022/03/13 03:00:17;;;;;;;0.50;0.50;;;5.60;99.90;;;;;;5022681;28;20187;-85
2022/03/13 03:02:43;;;;;;;1.20;1.10;;;5.70;99.90;;;;;;5026937;28;20191;-85
2022/03/13 03:05:09;;;;;;;0.33;0.33;;;5.70;99.90;;;;;;5026291;28;20282;-85
2022/03/13 03:07:36;;;;;;;0.57;0.37;;;5.70;99.90;;;;;;5025645;28;20295;-85
2022/03/13 03:10:03;;;;;;;1.13;0.60;;;5.70;99.90;;;;;;5025623;28;20191;-84
2022/03/13 03:12:29;;;;;;;2.57;0.60;;;5.60;99.90;;;;;;5025312;28;20564;-84
2022/03/13 03:14:55;;;;;;;1.80;0.30;;;5.50;99.90;;;;;;5025049;28;20193;-85
2022/03/13 03:17:20;;;;;;;2.07;1.00;;;5.40;99.90;;;;;;5021072;28;20186;-85
2022/03/13 03:19:46;;;;;;;0.23;0.23;;;5.30;99.90;;;;;;5027121;28;20187;-85
2022/03/13 03:22:13;;;;;;;1.20;0.97;;;5.30;99.90;;;;;;5021587;28;20680;-85
2022/03/13 03:24:39;;;;;;;0.43;0.43;;;5.10;99.90;;;;;;5026396;28;20232;-85
2022/03/13 03:27:05;;;;;;;0.13;0.13;;;5.10;99.90;;;;;;5024804;28;20866;-85
2022/03/13 03:29:30;;;;;;;0.40;0.40;;;5.00;99.90;;;;;;5020742;28;20179;-85
2022/03/13 03:31:57;;;;;;;0.20;0.20;;;4.80;99.90;;;;;;5024550;28;20297;-85
2022/03/13 03:34:25;;;;;;;0.30;0.30;;;4.80;99.90;;;;;;5042919;28;20198;-85
2022/03/13 03:36:56;;;;;;;2.53;0.40;;;4.80;99.90;;;;;;5019940;28;20182;-85
2022/03/13 03:39:23;;;;;;;3.63;0.93;;;4.80;99.90;;;;;;5021404;28;20181;-85
2022/03/13 03:41:50;;;;;;;0.23;0.23;;;4.90;99.90;;;;;;5021197;28;20208;-84
2022/03/13 03:44:17;;;;;;;0.20;0.20;;;5.00;99.90;;;;;;5024629;28;20197;-84
2022/03/13 03:46:45;;;;;;;0.77;0.77;;;5.00;99.90;;;;;;5024784;28;20285;-85
2022/03/13 03:49:10;;;;;;;0.43;0.43;;;5.00;99.90;;;;;;5026494;28;20215;-85
2022/03/13 03:51:36;;;;;;;0.90;0.77;;;5.00;99.90;;;;;;5026550;28;20218;-84
2022/03/13 03:54:05;;;;;;;0.10;0.10;;;4.90;99.90;;;;;;5026122;28;20701;-85
2022/03/13 03:56:31;;;;;;;0.43;0.43;;;4.90;99.90;;;;;;5021340;28;20185;-85
2022/03/13 03:58:57;;;;;;;0.37;0.37;;;4.80;99.90;;;;;;5020247;28;20220;-85
2022/03/13 04:01:23;;;;;;;0.60;0.60;;;4.70;99.90;;;;;;5025264;28;20263;-85
2022/03/13 04:03:48;;;;;;;0.50;0.43;;;4.60;99.90;;;;;;5023828;28;20279;-83
2022/03/13 04:06:15;;;;;;;1.40;0.43;;;4.60;99.90;;;;;;5025923;28;20203;-85
2022/03/13 04:08:41;;;;;;;0.73;0.73;;;4.60;99.90;;;;;;5025286;28;20208;-85
2022/03/13 04:11:08;;;;;;;0.50;0.43;;;4.50;99.90;;;;;;5023770;28;20211;-84
2022/03/13 04:13:35;;;;;;;0.50;0.50;;;4.50;99.90;;;;;;5021769;28;20190;-85
2022/03/13 04:16:00;;;;;;;0.17;0.17;;;4.50;99.90;;;;;;5025320;28;20221;-85
2022/03/13 04:18:26;;;;;;;0.33;0.33;;;4.50;99.90;;;;;;5026153;28;20197;-84
2022/03/13 04:20:51;;;;;;;0.87;0.87;;;4.50;99.90;;;;;;5022724;28;20210;-84
2022/03/13 04:23:17;;;;;;;0.67;0.67;;;4.50;99.90;;;;;;5022462;28;20566;-85
2022/03/13 04:25:43;;;;;;;0.43;0.40;;;4.40;99.90;;;;;;5040533;28;20699;-85
2022/03/13 04:28:10;;;;;;;0.90;0.90;;;4.30;99.90;;;;;;5023884;28;20755;-85
2022/03/13 04:30:38;;;;;;;1.17;0.60;;;4.20;99.90;;;;;;5025508;28;20726;-84
2022/03/13 04:33:05;;;;;;;0.30;0.30;;;4.00;99.90;;;;;;5024592;28;20192;-85
2022/03/13 04:35:30;;;;;;;0.20;0.20;;;4.10;99.90;;;;;;5024893;28;20572;-85
2022/03/13 04:37:56;;;;;;;0.20;0.20;;;3.90;99.90;;;;;;5025489;28;20186;-84
2022/03/13 04:40:21;;;;;;;1.17;1.07;;;4.00;99.90;;;;;;5024592;28;20197;-85
2022/03/13 04:42:47;;;;;;;0.27;0.27;;;4.00;99.90;;;;;;5022887;28;20182;-84
2022/03/13 04:45:13;;;;;;;1.17;0.40;;;4.00;99.90;;;;;;5024160;28;20547;-84
2022/03/13 04:47:38;;;;;;;0.63;0.50;;;4.10;99.90;;;;;;5020174;28;20255;-85
2022/03/13 04:50:04;;;;;;;1.07;1.07;;;4.10;99.90;;;;;;5027102;28;20186;-85
2022/03/13 04:52:30;;;;;;;1.80;0.43;;;4.00;99.90;;;;;;5021318;28;20203;-85
2022/03/13 04:54:56;;;;;;;0.40;0.40;;;3.90;99.90;;;;;;5018381;28;20239;-85
2022/03/13 04:57:22;;;;;;;0.57;0.57;;;3.80;99.90;;;;;;5020520;28;20179;-85
2022/03/13 04:59:47;;;;;;;0.40;0.40;;;3.80;99.90;;;;;;5018443;28;20182;-84
2022/03/13 05:02:13;;;;;;;0.20;0.20;;;3.80;99.90;;;;;;5023441;28;20240;-84
2022/03/13 05:04:38;;;;;;;1.07;1.07;;;3.80;99.90;;;;;;5021910;28;20293;-84
2022/03/13 05:07:06;;;;;;;0.20;0.20;;;3.90;99.90;;;;;;5020039;28;20239;-84
2022/03/13 05:09:32;;;;;;;1.30;0.63;;;3.80;99.90;;;;;;5023528;28;20187;-85
2022/03/13 05:11:58;;;;;;;0.60;0.57;;;3.70;99.90;;;;;;5021778;28;20256;-85
2022/03/13 05:14:24;;;;;;;0.50;0.50;;;3.70;99.90;;;;;;5022684;28;20199;-84
2022/03/13 05:16:49;;;;;;;1.40;0.77;;;3.70;99.90;;;;;;5021924;28;20191;-85
2022/03/13 05:19:15;;;;;;;1.63;1.53;;;3.80;99.90;;;;;;5024712;28;20195;-85
2022/03/13 05:21:41;;;;;;;1.37;0.50;;;3.90;99.90;;;;;;5023689;28;20585;-85
2022/03/13 05:24:07;;;;;;;0.10;0.10;;;3.90;99.90;;;;;;5021392;28;20270;-85
2022/03/13 05:26:33;;;;;;;0.53;0.50;;;3.80;99.90;;;;;;5021047;28;20229;-85
2022/03/13 05:28:59;;;;;;;1.07;1.07;;;3.80;99.90;;;;;;5022615;28;20279;-84
2022/03/13 05:31:25;;;;;;;0.30;0.30;;;3.80;99.90;;;;;;5024030;28;20861;-84
2022/03/13 05:33:50;;;;;;;0.33;0.33;;;3.80;99.90;;;;;;5022966;28;20260;-85
2022/03/13 05:36:17;;;;;;;0.60;0.60;;;3.90;99.90;;;;;;5021662;28;20193;-85
2022/03/13 05:38:42;;;;;;;2.30;0.97;;;3.90;99.90;;;;;;5023994;28;20236;-85
2022/03/13 05:41:08;;;;;;;0.77;0.77;;;3.90;99.90;;;;;;5017394;28;20262;-85
2022/03/13 05:43:34;;;;;;;0.40;0.40;;;3.90;99.90;;;;;;5018699;28;20232;-85
2022/03/13 05:46:00;;;;;;;0.10;0.10;;;3.90;99.90;;;;;;5016401;28;20187;-85
2022/03/13 05:48:26;;;;;;;0.50;0.50;;;3.80;99.90;;;;;;5019409;28;20256;-85
2022/03/13 05:50:52;;;;;;;0.50;0.50;;;3.90;99.90;;;;;;5018788;28;21401;-84
2022/03/13 05:53:18;;;;;;;0.73;0.73;;;3.90;99.90;;;;;;5020654;28;20193;-84
2022/03/13 05:55:45;;;;;;;0.50;0.50;;;3.90;99.90;;;;;;5019527;28;20636;-85
2022/03/13 05:58:13;;;;;;;0.20;0.20;;;3.90;99.90;;;;;;5022507;28;20193;-85
2022/03/13 06:00:39;;;;;;;0.63;0.63;;;3.90;99.90;;;;;;5019755;28;20220;-83
2022/03/13 06:03:06;;;;;;;0.37;0.37;;;4.00;99.90;;;;;;5020701;28;20193;-84
2022/03/13 06:05:35;;;;;;;0.30;0.30;;;3.90;99.90;;;;;;5022074;28;20221;-84
2022/03/13 06:08:01;;;;;;;0.20;0.20;;;3.90;99.90;;;;;;5025302;28;20206;-83
2022/03/13 06:10:27;;;;;;;0.20;0.20;;;4.10;99.90;;;;;;5026668;28;20209;-84
2022/03/13 06:12:53;;;;;;;0.57;0.40;;;4.00;99.90;;;;;;5024963;28;20185;-83
2022/03/13 06:15:19;;;;;;;0.20;0.20;;;4.00;99.90;;;;;;5025720;28;20186;-84
2022/03/13 06:17:48;;;;;;;0.10;0.10;;;4.00;99.90;;;;;;5025685;28;20193;-83
2022/03/13 06:20:16;;;;;;;0.33;0.33;;;4.20;99.90;;;;;;5022186;28;20244;-84
2022/03/13 06:22:44;;;;;;;3.67;0.60;;;4.20;99.90;;;;;;5021582;28;20202;-84
2022/03/13 06:25:11;;;;;;;0.30;0.30;;;4.20;99.90;;;;;;5026482;28;20202;-84
2022/03/13 06:27:38;;;;;;;0.40;0.40;;;4.20;99.90;;;;;;5028291;28;20289;-84
2022/03/13 06:30:16;;;;;;;0.43;0.43;;;4.30;99.90;;;;;;5022912;28;20393;-82
2022/03/13 06:32:47;;;;;;;0.63;0.63;;;4.40;99.90;;;;;;5023615;28;20332;-82
2022/03/13 06:35:13;;;;;;;0.73;0.57;;;4.40;99.90;;;;;;5026043;28;20193;-82
2022/03/13 06:37:39;;;;;;;0.10;0.10;;;4.50;99.90;;;;;;5023953;28;20186;-82
2022/03/13 06:40:07;;;;;;;0.50;0.50;;;4.50;99.90;;;;;;5026795;28;20186;-82
2022/03/13 06:42:33;;;;;;;0.67;0.67;;;4.50;99.90;;;;;;5022676;28;20574;-82
2022/03/13 06:44:59;;;;;;;0.87;0.87;;;4.60;99.90;;;;;;5024825;28;20186;-82
2022/03/13 06:47:25;;;;;;;4.33;0.77;;;4.60;99.90;;;;;;5022037;28;20558;-82
2022/03/13 06:49:50;;;;;;;0.60;0.60;;;4.80;99.90;;;;;;5026509;28;20182;-81
2022/03/13 06:52:16;;;;;;;0.27;0.27;;;5.00;99.90;;;;;;5021644;28;20619;-82
2022/03/13 06:54:43;;;;;;;0.23;0.23;;;5.20;99.90;;;;;;5021141;28;20185;-81
2022/03/13 06:57:08;;;;;;;0.40;0.40;;;5.40;99.90;;;;;;5028386;28;20179;-82
2022/03/13 06:59:34;;;;;;;0.70;0.70;;;5.70;99.90;;;;;;5027298;28;20186;-81
2022/03/13 07:02:00;;;;;;;2.43;0.67;;;5.90;99.90;;;;;;5043151;28;20325;-82
2022/03/13 07:04:25;;;;;;;0.97;0.40;;;6.20;99.90;;;;;;5025744;28;20212;-82
2022/03/13 07:06:51;;;;;;;0.47;0.47;;;6.50;99.90;;;;;;5043493;28;20246;-82
2022/03/13 07:09:17;;;;;;;0.60;0.60;;;6.60;99.90;;;;;;5022801;28;20202;-81
2022/03/13 07:11:45;;;;;;;0.47;0.47;;;6.80;99.90;;;;;;5027504;28;20207;-82
2022/03/13 07:14:11;;;;;;;1.40;0.80;;;6.80;99.90;;;;;;5025775;28;20203;-82
2022/03/13 07:16:37;;;;;;;2.43;0.67;;;7.10;99.90;;;;;;5027067;28;20239;-81
2022/03/13 07:19:03;;;;;;;0.67;0.57;;;7.20;99.90;;;;;;5028860;28;20881;-81
2022/03/13 07:21:29;;;;;;;1.03;0.63;;;7.00;99.90;;;;;;5027268;28;20782;-82
2022/03/13 07:23:55;;;;;;;2.30;0.70;;;6.80;99.90;;;;;;5029046;28;20193;-82
2022/03/13 07:26:20;;;;;;;0.93;0.83;;;6.50;99.90;;;;;;5028644;28;20268;-82
2022/03/13 07:28:46;;;;;;;0.30;0.20;;;6.60;99.90;;;;;;5023305;28;20206;-82
2022/03/13 07:31:12;;;;;;;0.23;0.23;;;6.60;99.90;;;;;;5026901;28;20222;-82
2022/03/13 07:33:37;;;;;;;0.30;0.30;;;6.90;99.90;;;;;;5029258;28;20193;-81
2022/03/13 07:36:03;;;;;;;2.13;1.10;;;6.90;99.90;;;;;;5025771;28;20556;-82
2022/03/13 07:38:29;;;;;;;1.03;0.60;;;6.60;99.90;;;;;;5024303;28;20200;-82
2022/03/13 07:40:54;;;;;;;0.30;0.30;;;6.40;99.90;;;;;;5027790;28;20207;-82
2022/03/13 07:43:20;;;;;;;0.47;0.47;;;6.20;99.90;;;;;;5024883;28;20192;-82
2022/03/13 07:45:46;;;;;;;0.77;0.77;;;6.40;99.90;;;;;;5023864;28;20195;-84
2022/03/13 07:48:11;;;;;;;0.43;0.43;;;6.40;99.90;;;;;;5021088;28;20214;-82
2022/03/13 07:50:37;;;;;;;0.30;0.30;;;6.30;99.90;;;;;;5023479;28;20202;-83
2022/03/13 07:53:04;;;;;;;0.13;0.13;;;6.50;99.90;;;;;;5032328;28;20188;-82
2022/03/13 07:55:29;;;;;;;0.97;0.73;;;6.70;99.90;;;;;;5024967;28;20248;-82
2022/03/13 07:57:55;;;;;;;1.03;0.90;;;6.90;99.90;;;;;;5021862;28;20963;-82
2022/03/13 08:00:22;;;;;;;2.60;1.07;;;7.40;99.90;;;;;;5019101;28;20195;-82
2022/03/13 08:02:49;;;;;;;0.47;0.47;;;7.40;99.90;;;;;;5019743;28;20191;-82
2022/03/13 08:05:16;;;;;;;0.73;0.47;;;7.70;99.90;;;;;;5025595;28;20761;-82
2022/03/13 08:07:42;;;;;;;0.50;0.50;;;7.80;99.90;;;;;;5022319;28;20575;-85
2022/03/13 08:10:09;;;;;;;2.07;0.77;;;8.00;99.90;;;;;;5020787;28;20191;-82
2022/03/13 08:12:34;;;;;;;1.03;1.00;;;8.00;99.90;;;;;;5040929;28;20232;-82
2022/03/13 08:15:00;;;;;;;0.53;0.53;;;7.90;99.90;;;;;;5023167;28;20307;-82
2022/03/13 08:17:26;;;;;;;0.93;0.57;;;7.90;99.90;;;;;;5021762;28;20181;-82
2022/03/13 08:19:54;;;;;;;1.27;0.93;;;8.20;99.90;;;;;;5023906;28;20225;-82
2022/03/13 08:22:20;;;;;;;2.00;1.03;;;8.10;99.90;;;;;;5023986;28;20210;-82
2022/03/13 08:24:46;;;;;;;2.53;1.23;;;8.30;99.90;;;;;;5016602;28;20242;-83
2022/03/13 08:27:12;;;;;;;2.00;1.70;;;8.90;99.90;;;;;;5024728;28;20202;-82
2022/03/13 08:29:37;;;;;;;1.10;0.70;;;8.90;99.90;;;;;;5023936;28;20212;-82
2022/03/13 08:32:03;;;;;;;0.80;0.80;;;8.40;99.90;;;;;;5026022;28;20264;-82
2022/03/13 08:34:30;;;;;;;0.77;0.77;;;8.80;99.90;;;;;;5019991;28;21047;-83
2022/03/13 08:36:56;;;;;;;0.93;0.67;;;9.10;99.90;;;;;;5019706;28;20185;-83
2022/03/13 08:39:22;;;;;;;1.20;1.10;;;9.00;99.90;;;;;;5020362;28;20184;-83
2022/03/13 08:41:47;;;;;;;0.87;0.80;;;8.90;99.90;;;;;;5022369;28;20239;-82
2022/03/13 08:44:13;;;;;;;0.43;0.43;;;8.50;99.90;;;;;;5022589;28;20193;-86
2022/03/13 08:46:39;;;;;;;0.77;0.77;;;8.70;99.90;;;;;;5018421;28;20238;-83
2022/03/13 08:49:07;;;;;;;0.43;0.43;;;8.70;99.90;;;;;;5021091;28;20197;-83
2022/03/13 08:51:32;;;;;;;0.57;0.57;;;8.30;99.90;;;;;;5018690;28;20292;-83
2022/03/13 08:53:58;;;;;;;0.57;0.57;;;8.50;99.90;;;;;;5016017;28;20682;-82
2022/03/13 08:56:25;;;;;;;0.40;0.37;;;8.60;99.90;;;;;;5021323;28;20175;-82
2022/03/13 08:58:50;;;;;;;0.57;0.57;;;8.50;99.90;;;;;;5023947;28;20214;-82
2022/03/13 09:01:17;;;;;;;2.07;1.07;;;8.50;99.90;;;;;;5022102;28;20244;-83
2022/03/13 09:03:42;;;;;;;0.57;0.57;;;8.70;99.90;;;;;;5026292;28;20181;-82
2022/03/13 09:06:09;;;;;;;0.90;0.73;;;8.70;99.90;;;;;;5024505;28;20191;-82
2022/03/13 09:08:34;;;;;;;1.20;0.77;;;9.20;99.90;;;;;;5023759;28;20196;-82
2022/03/13 09:11:01;;;;;;;1.23;0.80;;;9.50;99.90;;;;;;5022330;28;20221;-82
2022/03/13 09:13:27;;;;;;;0.33;0.33;;;9.40;99.90;;;;;;5020853;28;20202;-82
2022/03/13 09:15:52;;;;;;;1.23;1.00;;;9.90;99.90;;;;;;5022298;28;20181;-82
2022/03/13 09:18:18;;;;;;;0.40;0.40;;;9.90;99.90;;;;;;5025944;28;20573;-82
2022/03/13 09:20:43;;;;;;;1.43;1.33;;;9.90;99.90;;;;;;5027005;28;20630;-82
2022/03/13 09:23:09;;;;;;;0.30;0.30;;;10.20;99.90;;;;;;5027015;28;20562;-82
2022/03/13 09:25:35;;;;;;;0.30;0.30;;;10.20;99.90;;;;;;5026915;28;20188;-82
2022/03/13 09:28:05;;;;;;;0.40;0.40;;;10.30;99.90;;;;;;5026855;28;20213;-83
2022/03/13 09:30:31;;;;;;;0.53;0.30;;;10.60;99.90;;;;;;5040828;28;20185;-82
2022/03/13 09:32:56;;;;;;;0.70;0.70;;;10.60;99.90;;;;;;5022745;28;20602;-82
2022/03/13 09:35:22;;;;;;;0.70;0.63;;;10.50;99.90;;;;;;5025338;28;20257;-83
2022/03/13 09:37:49;;;;;;;0.70;0.70;;;10.40;99.90;;;;;;5023155;28;20184;-83
2022/03/13 09:40:17;;;;;;;1.10;1.00;;;10.90;99.90;;;;;;5020840;28;20193;-83
2022/03/13 09:42:43;;;;;;;1.50;1.43;;;10.90;99.90;;;;;;5027554;28;20275;-82
2022/03/13 09:45:10;;;;;;;2.50;1.27;;;10.80;99.90;;;;;;5025109;28;20225;-83
2022/03/13 09:47:36;;;;;;;1.80;0.70;;;11.10;99.90;;;;;;5027478;28;20211;-83
2022/03/13 09:50:02;;;;;;;0.20;0.20;;;11.20;99.90;;;;;;5024107;28;20182;-83
2022/03/13 09:52:28;;;;;;;0.37;0.37;;;11.70;99.90;;;;;;5026768;28;20213;-82
2022/03/13 09:54:53;;;;;;;0.47;0.23;;;11.70;99.90;;;;;;5025898;28;20232;-82
2022/03/13 09:57:20;;;;;;;0.50;0.50;;;12.20;99.90;;;;;;5029357;28;20244;-83
2022/03/13 09:59:46;;;;;;;0.60;0.60;;;12.50;99.90;;;;;;5028732;28;20720;-82
2022/03/13 10:02:12;;;;;;;0.87;0.73;;;12.10;99.90;;;;;;5019748;28;20214;-82
2022/03/13 10:04:37;;;;;;;0.60;0.60;;;11.90;99.90;;;;;;5026682;28;20725;-83
2022/03/13 10:07:04;;;;;;;0.70;0.70;;;12.40;99.90;;;;;;5026936;28;21081;-83
2022/03/13 10:09:32;;;;;;;1.93;0.43;;;12.90;99.90;;;;;;5025290;28;20210;-82
2022/03/13 10:12:14;;;;;;;1.00;0.43;;;13.10;99.90;;;;;;5024131;28;20203;-82
2022/03/13 10:15:03;;;;;;;1.23;1.13;;;13.20;99.90;;;;;;5026337;28;20528;-82
2022/03/13 10:17:32;;;;;;;1.93;1.00;;;13.30;99.90;;;;;;5019381;28;20194;-83
2022/03/13 10:20:27;;;;;;;1.37;0.87;;;13.20;99.90;;;;;;5026035;28;21128;-82
2022/03/13 10:23:02;;;;;;;0.87;0.43;;;13.20;99.90;;;;;;5036978;28;20184;-82
2022/03/13 10:25:33;;;;;;;0.93;0.80;;;13.50;99.90;;;;;;5044271;28;20229;-83
2022/03/13 10:28:12;;;;;;;2.07;1.00;;;13.50;99.90;;;;;;5037538;28;20217;-83
2022/03/13 10:30:38;;;;;;;0.77;0.70;;;13.40;99.90;;;;;;5030136;28;20183;-83
2022/03/13 10:33:05;;;;;;;0.50;0.47;;;13.00;99.90;;;;;;5032390;28;20241;-82
2022/03/13 10:35:31;;;;;;;0.93;0.63;;;13.20;99.90;;;;;;5028254;28;20285;-82
2022/03/13 10:37:56;;;;;;;2.10;0.70;;;12.90;99.90;;;;;;5032603;28;20225;-83
2022/03/13 10:40:24;;;;;;;1.00;1.00;;;13.20;99.90;;;;;;5025142;28;20231;-83
2022/03/13 10:42:53;;;;;;;2.20;1.10;;;12.80;99.90;;;;;;5024322;28;20202;-83
2022/03/13 10:45:36;;;;;;;3.63;1.17;;;11.80;99.90;;;;;;5031914;28;20214;-83
2022/03/13 10:48:16;;;;;;;0.60;0.50;;;11.30;99.90;;;;;;5030233;28;21276;-83
2022/03/13 10:50:45;;;;;;;0.93;0.90;;;11.90;99.90;;;;;;5029202;28;20204;-83
2022/03/13 10:53:12;;;;;;;0.97;0.97;;;11.70;99.90;;;;;;5027114;28;20183;-82
2022/03/13 10:55:38;;;;;;;1.50;1.40;;;11.70;99.90;;;;;;5025562;28;20213;-82
2022/03/13 10:58:04;;;;;;;1.23;1.13;;;12.10;99.90;;;;;;5027855;28;20186;-82
2022/03/13 11:00:29;;;;;;;2.20;0.53;;;12.30;99.90;;;;;;5025981;28;20187;-82
2022/03/13 11:03:11;;;;;;;1.93;0.70;;;12.30;99.90;;;;;;5029042;28;20321;-82
2022/03/13 11:05:38;;;;;;;1.10;1.00;;;11.60;99.90;;;;;;5029113;28;20695;-83
2022/03/13 11:08:04;;;;;;;1.67;1.17;;;12.10;99.90;;;;;;5028590;28;20210;-82
2022/03/13 11:10:30;;;;;;;0.70;0.63;;;12.30;99.90;;;;;;5028042;28;20188;-82
2022/03/13 11:12:57;;;;;;;0.50;0.50;;;12.80;99.90;;;;;;5028666;28;20202;-82
2022/03/13 11:15:25;;;;;;;3.10;0.77;;;13.00;99.90;;;;;;5026022;28;20183;-82
2022/03/13 11:17:51;;;;;;;2.13;1.17;;;12.70;99.90;;;;;;5029556;28;20182;-83
2022/03/13 11:20:18;;;;;;;1.73;0.57;;;12.40;99.90;;;;;;5026905;28;20690;-82
2022/03/13 11:22:43;;;;;;;3.13;1.90;;;12.50;99.90;;;;;;5020575;28;20272;-83
2022/03/13 11:25:10;;;;;;;0.50;0.50;;;12.20;99.90;;;;;;5024919;28;20227;-83
2022/03/13 11:27:38;;;;;;;1.00;0.60;;;12.60;99.90;;;;;;5025253;28;20190;-82
2022/03/13 11:30:06;;;;;;;0.70;0.70;;;12.60;99.90;;;;;;5026831;28;20182;-82
2022/03/13 11:32:50;;;;;;;1.47;1.33;;;13.20;99.90;;;;;;5022461;28;20212;-82
2022/03/13 11:35:17;;;;;;;1.80;1.30;;;13.40;99.90;;;;;;5026584;28;20183;-83
2022/03/13 11:37:46;;;;;;;1.90;0.67;;;12.40;99.90;;;;;;5025264;28;21131;-83
2022/03/13 11:40:13;;;;;;;0.73;0.70;;;12.60;99.90;;;;;;5025445;28;20197;-83
2022/03/13 11:42:50;;;;;;;0.70;0.63;;;12.40;99.90;;;;;;5023350;28;20244;-82
2022/03/13 11:45:34;;;;;;;1.03;0.90;;;12.90;99.90;;;;;;5026903;28;21046;-83
2022/03/13 11:48:13;;;;;;;1.90;0.80;;;13.20;99.90;;;;;;5026103;28;20205;-83
2022/03/13 11:50:51;;;;;;;3.13;1.13;;;13.20;99.90;;;;;;5025902;28;20184;-83
2022/03/13 11:53:24;;;;;;;1.17;1.07;;;12.80;99.90;;;;;;5025774;28;20178;-83
2022/03/13 11:56:10;;;;;;;1.13;1.03;;;13.20;99.90;;;;;;5020823;28;20273;-82
2022/03/13 11:58:49;;;;;;;0.70;0.70;;;13.60;99.90;;;;;;5024541;28;20274;-83
2022/03/13 12:01:18;;;;;;;1.53;1.07;;;13.60;99.90;;;;;;5026067;28;20226;-83
2022/03/13 12:04:09;;;;;;;1.93;0.93;;;13.10;99.90;;;;;;5025129;28;20188;-82
2022/03/13 12:06:56;;;;;;;1.13;0.90;;;13.10;99.90;;;;;;5016726;28;20197;-83
2022/03/13 12:09:42;;;;;;;1.10;1.07;;;13.20;99.90;;;;;;5023960;28;20240;-83
2022/03/13 12:12:13;;;;;;;1.40;1.27;;;13.70;99.90;;;;;;5019951;28;20554;-82
2022/03/13 12:14:54;;;;;;;2.27;2.00;;;13.40;99.90;;;;;;5028424;28;20191;-82
2022/03/13 12:17:25;;;;;;;0.97;0.70;;;13.10;99.90;;;;;;5028435;28;20173;-82
2022/03/13 12:19:52;;;;;;;0.80;0.80;;;13.60;99.90;;;;;;5027484;28;20195;-83
2022/03/13 12:22:22;;;;;;;2.90;0.70;;;13.90;99.90;;;;;;5029026;28;20225;-83
2022/03/13 12:24:50;;;;;;;1.33;1.23;;;14.10;99.90;;;;;;5026107;28;20853;-83
2022/03/13 12:27:15;;;;;;;1.77;1.27;;;14.40;99.90;;;;;;5027087;28;20184;-82
2022/03/13 12:29:41;;;;;;;1.43;1.17;;;14.30;99.90;;;;;;5022610;28;20213;-83
2022/03/13 12:32:11;;;;;;;0.40;0.40;;;13.90;99.90;;;;;;5027567;28;20206;-82
2022/03/13 12:34:40;;;;;;;1.70;1.60;;;13.90;99.90;;;;;;5025376;28;20185;-82
2022/03/13 12:37:09;;;;;;;1.37;1.00;;;13.80;99.90;;;;;;5025324;28;20227;-82
2022/03/13 12:39:50;;;;;;;0.70;0.70;;;13.80;99.90;;;;;;5024895;28;20219;-82
2022/03/13 12:42:21;;;;;;;1.33;0.53;;;14.00;99.90;;;;;;5025468;28;20232;-82
2022/03/13 12:45:07;;;;;;;0.90;0.90;;;14.60;99.90;;;;;;5025535;28;20202;-83
2022/03/13 12:47:39;;;;;;;1.13;1.03;;;14.80;99.90;;;;;;5026329;28;20186;-82
2022/03/13 12:50:08;;;;;;;2.40;1.70;;;15.00;99.90;;;;;;5022768;28;20269;-82
2022/03/13 12:52:34;;;;;;;1.40;1.20;;;14.90;99.90;;;;;;5019766;28;20303;-82
2022/03/13 12:55:01;;;;;;;3.00;2.13;;;14.50;99.90;;;;;;5025272;28;20217;-82
2022/03/13 12:57:27;;;;;;;1.87;1.10;;;13.90;99.90;;;;;;5020879;28;20182;-83